Time;durP1;ratioP1;P1;durP2;ratioP2;P2;SDS_P1;SDS_P2;PMS_P1;PMS_P2;Temp;Humidity;BMP_temperature;BMP_pressure;BME280_temperature;BME280_humidity;BME280_pressure;Samples;Min_cycle;Max_cycle;Signal;HPM_P1;HPM_P2
2023/09/19 00:00:43;;;;;;;4.20;1.70;;;14.40;99.90;;;;;;5014219;28;20095;-78
2023/09/19 00:03:09;;;;;;;6.90;2.10;;;14.30;99.90;;;;;;5048444;28;20080;-78
2023/09/19 00:05:38;;;;;;;8.38;2.60;;;14.30;99.90;;;;;;5049134;28;20052;-78
2023/09/19 00:08:04;;;;;;;5.72;1.70;;;14.20;99.90;;;;;;5049666;28;20037;-78
2023/09/19 00:10:36;;;;;;;7.13;1.95;;;14.20;99.90;;;;;;5048462;28;20053;-77
2023/09/19 00:13:06;;;;;;;5.97;1.58;;;14.10;99.90;;;;;;5046181;28;20033;-79
2023/09/19 00:15:40;;;;;;;7.50;1.70;;;14.10;99.90;;;;;;5046985;28;20538;-78
2023/09/19 00:18:08;;;;;;;5.90;1.67;;;14.00;99.90;;;;;;5049490;28;20045;-79
2023/09/19 00:20:36;;;;;;;8.13;1.73;;;14.00;99.90;;;;;;5031371;28;20549;-79
2023/09/19 00:23:04;;;;;;;6.18;1.70;;;13.90;99.90;;;;;;5032469;28;20041;-78
2023/09/19 00:25:29;;;;;;;4.55;1.80;;;13.80;99.90;;;;;;5049892;28;20450;-78
2023/09/19 00:27:55;;;;;;;7.45;1.73;;;13.80;99.90;;;;;;5050092;28;20057;-78
2023/09/19 00:30:23;;;;;;;5.88;1.50;;;14.00;99.90;;;;;;5053349;28;20535;-79
2023/09/19 00:32:54;;;;;;;5.32;1.55;;;13.70;99.90;;;;;;5052973;28;20048;-79
2023/09/19 00:35:27;;;;;;;6.25;1.77;;;13.60;99.90;;;;;;5051340;28;20040;-79
2023/09/19 00:37:53;;;;;;;7.97;1.80;;;13.60;99.90;;;;;;5052108;28;20052;-79
2023/09/19 00:40:21;;;;;;;5.30;1.80;;;13.60;99.90;;;;;;5052650;28;20056;-79
2023/09/19 00:42:48;;;;;;;8.02;1.98;;;13.50;99.90;;;;;;5052012;28;20072;-78
2023/09/19 00:45:16;;;;;;;9.18;1.80;;;13.50;99.90;;;;;;5052489;28;20519;-78
2023/09/19 00:47:49;;;;;;;8.98;1.90;;;13.50;99.90;;;;;;5052466;28;20587;-78
2023/09/19 00:50:21;;;;;;;7.47;2.20;;;13.50;99.90;;;;;;5054438;28;20064;-79
2023/09/19 00:52:49;;;;;;;;;;;13.50;99.90;;;;;;5052565;28;20066;-79
2023/09/19 00:55:16;;;;;;;5.65;1.88;;;13.50;99.90;;;;;;5034796;28;19970;-78
2023/09/19 00:57:43;;;;;;;6.03;2.10;;;13.50;99.90;;;;;;5051846;28;20053;-78
2023/09/19 01:00:15;;;;;;;6.78;2.05;;;13.50;99.90;;;;;;5053827;28;20098;-78
2023/09/19 01:02:45;;;;;;;8.70;1.90;;;13.50;99.90;;;;;;5054838;28;20143;-79
2023/09/19 01:05:15;;;;;;;9.38;2.00;;;13.50;99.90;;;;;;5053710;28;20045;-78
2023/09/19 01:07:41;;;;;;;8.55;1.92;;;13.50;99.90;;;;;;5054596;28;20076;-79
2023/09/19 01:10:11;;;;;;;10.18;1.85;;;13.50;99.90;;;;;;5052806;28;20510;-78
2023/09/19 01:13:07;;;;;;;9.25;2.20;;;13.50;99.90;;;;;;5051536;28;20040;-79
2023/09/19 01:15:42;;;;;;;11.43;2.25;;;13.50;99.90;;;;;;5033976;28;20500;-79
2023/09/19 01:18:24;;;;;;;9.02;2.38;;;13.50;99.90;;;;;;5049344;28;20171;-79
2023/09/19 01:21:31;;;;;;;6.50;1.73;;;13.50;99.90;;;;;;5052956;28;20094;-79
2023/09/19 01:24:22;;;;;;;6.97;2.05;;;13.50;99.90;;;;;;5051352;28;20064;-79
2023/09/19 01:27:17;;;;;;;9.38;2.20;;;13.50;99.90;;;;;;5051405;28;20095;-79
2023/09/19 01:29:46;;;;;;;10.20;1.90;;;13.40;99.90;;;;;;5050713;28;20041;-78
2023/09/19 01:32:16;;;;;;;11.35;2.65;;;13.40;99.90;;;;;;5052877;28;20056;-78
2023/09/19 01:34:49;;;;;;;8.07;2.42;;;13.40;99.90;;;;;;5051364;28;20040;-79
2023/09/19 01:37:20;;;;;;;7.50;1.85;;;13.40;99.90;;;;;;5051694;28;20146;-79
2023/09/19 01:39:48;;;;;;;8.65;2.22;;;13.40;99.90;;;;;;5050864;28;20048;-78
2023/09/19 01:42:51;;;;;;;7.15;2.22;;;13.30;99.90;;;;;;5049917;28;20029;-79
2023/09/19 01:45:42;;;;;;;6.43;2.13;;;13.30;99.90;;;;;;5049739;28;20048;-78
2023/09/19 01:48:38;;;;;;;8.27;2.17;;;13.20;99.90;;;;;;5032747;28;20051;-79
2023/09/19 01:51:11;;;;;;;5.93;2.03;;;13.20;99.90;;;;;;5000028;28;20527;-79
2023/09/19 01:53:44;;;;;;;10.55;2.42;;;13.10;99.90;;;;;;5032170;28;20511;-79
2023/09/19 01:56:22;;;;;;;6.40;2.25;;;13.10;99.90;;;;;;5049522;28;20067;-79
2023/09/19 01:58:56;;;;;;;6.57;1.90;;;13.10;99.90;;;;;;5049631;28;20036;-79
2023/09/19 02:01:24;;;;;;;11.00;2.30;;;13.10;99.90;;;;;;5032810;28;20985;-78
2023/09/19 02:03:50;;;;;;;8.07;2.08;;;13.10;99.90;;;;;;5049632;28;20048;-79
2023/09/19 02:06:18;;;;;;;9.40;2.00;;;13.10;99.90;;;;;;5050419;28;20048;-78
2023/09/19 02:08:45;;;;;;;5.15;2.20;;;13.00;99.90;;;;;;5032485;28;20818;-78
2023/09/19 02:11:12;;;;;;;10.73;2.45;;;13.00;99.90;;;;;;5032812;28;20049;-77
2023/09/19 02:13:38;;;;;;;9.73;2.38;;;13.00;99.90;;;;;;5050716;28;20416;-78
2023/09/19 02:16:04;;;;;;;8.13;2.17;;;13.00;99.90;;;;;;5051105;28;20057;-78
2023/09/19 02:18:30;;;;;;;8.63;2.28;;;13.00;99.90;;;;;;5049786;28;20085;-78
2023/09/19 02:20:58;;;;;;;5.72;2.10;;;13.00;99.90;;;;;;5051179;28;20124;-78
2023/09/19 02:23:24;;;;;;;7.88;2.05;;;13.00;99.90;;;;;;5031206;28;20113;-78
2023/09/19 02:26:08;;;;;;;9.07;2.88;;;12.90;99.90;;;;;;5031532;28;20130;-78
2023/09/19 02:28:34;;;;;;;9.38;2.25;;;13.00;99.90;;;;;;5049659;28;20072;-78
2023/09/19 02:31:00;;;;;;;11.35;2.20;;;12.90;99.90;;;;;;5048219;28;20041;-78
2023/09/19 02:33:25;;;;;;;7.82;2.50;;;13.00;99.90;;;;;;5048239;28;20119;-78
2023/09/19 02:35:57;;;;;;;7.53;2.50;;;12.90;99.90;;;;;;5049770;28;20049;-78
2023/09/19 02:38:25;;;;;;;8.73;2.63;;;12.90;99.90;;;;;;5050284;28;20052;-78
2023/09/19 02:40:51;;;;;;;8.48;2.45;;;12.90;99.90;;;;;;5048386;28;20445;-78
2023/09/19 02:43:17;;;;;;;9.52;2.60;;;12.90;99.90;;;;;;5049323;28;20075;-78
2023/09/19 02:45:44;;;;;;;8.10;2.10;;;12.90;99.90;;;;;;5014778;28;20050;-77
2023/09/19 02:48:11;;;;;;;9.55;2.30;;;12.90;99.90;;;;;;5030088;28;20507;-78
2023/09/19 02:50:36;;;;;;;9.82;2.70;;;12.90;99.90;;;;;;5030641;28;20056;-78
2023/09/19 02:53:03;;;;;;;3.90;2.17;;;12.90;99.90;;;;;;5029227;28;20045;-78
2023/09/19 02:55:28;;;;;;;6.10;2.47;;;12.90;99.90;;;;;;5047325;28;20053;-78
2023/09/19 02:57:54;;;;;;;8.55;2.15;;;12.90;99.90;;;;;;5040225;28;20045;-78
2023/09/19 03:00:21;;;;;;;6.85;2.00;;;12.90;99.90;;;;;;5020947;28;20081;-78
2023/09/19 03:02:52;;;;;;;7.65;2.67;;;12.90;99.90;;;;;;5047913;28;20044;-78
2023/09/19 03:05:18;;;;;;;7.23;2.63;;;13.50;99.90;;;;;;5046931;28;20056;-78
2023/09/19 03:07:46;;;;;;;4.90;2.25;;;12.90;99.90;;;;;;5046969;28;20044;-79
2023/09/19 03:10:13;;;;;;;8.20;2.45;;;12.90;99.90;;;;;;5046977;28;20119;-79
2023/09/19 03:12:40;;;;;;;6.18;1.98;;;12.80;99.90;;;;;;5047423;28;20480;-79
2023/09/19 03:15:08;;;;;;;7.95;1.75;;;12.80;99.90;;;;;;5048892;28;20122;-78
2023/09/19 03:17:34;;;;;;;5.82;1.95;;;12.90;99.90;;;;;;5038698;28;20080;-79
2023/09/19 03:19:59;;;;;;;5.40;2.00;;;12.90;99.90;;;;;;5022374;28;20511;-78
2023/09/19 03:22:26;;;;;;;6.47;1.90;;;12.90;99.90;;;;;;5029841;28;20045;-78
2023/09/19 03:24:53;;;;;;;6.22;2.10;;;12.90;99.90;;;;;;5048519;28;20615;-78
2023/09/19 03:27:18;;;;;;;6.25;2.00;;;12.90;99.90;;;;;;5043778;28;20500;-78
2023/09/19 03:29:44;;;;;;;4.53;2.00;;;12.80;99.90;;;;;;5034710;28;20035;-78
2023/09/19 03:32:10;;;;;;;5.45;2.08;;;12.90;99.90;;;;;;5039491;28;20061;-79
2023/09/19 03:34:40;;;;;;;4.13;2.03;;;12.80;99.90;;;;;;5047620;28;20520;-79
2023/09/19 03:37:06;;;;;;;7.68;2.00;;;12.90;99.90;;;;;;5046638;28;20120;-79
2023/09/19 03:39:32;;;;;;;6.43;2.10;;;12.90;99.90;;;;;;5045597;28;20061;-78
2023/09/19 03:41:58;;;;;;;6.82;2.30;;;12.90;99.90;;;;;;5047412;28;20049;-78
2023/09/19 03:44:23;;;;;;;5.53;2.30;;;12.90;99.90;;;;;;5047234;28;20110;-78
2023/09/19 03:46:49;;;;;;;7.15;1.90;;;13.00;99.90;;;;;;5048169;28;20098;-78
2023/09/19 03:49:14;;;;;;;6.85;2.58;;;13.00;99.90;;;;;;5047171;28;20037;-77
2023/09/19 03:51:41;;;;;;;7.57;2.35;;;13.00;99.90;;;;;;5029049;28;20037;-78
2023/09/19 03:54:08;;;;;;;12.10;3.15;;;13.00;99.90;;;;;;5011184;28;20053;-78
2023/09/19 03:56:33;;;;;;;5.15;2.20;;;13.00;99.90;;;;;;5026845;28;20053;-79
2023/09/19 03:58:59;;;;;;;6.57;2.25;;;13.00;99.90;;;;;;5044676;28;20045;-78
2023/09/19 04:01:27;;;;;;;8.68;2.05;;;13.00;99.90;;;;;;5044665;28;20577;-78
2023/09/19 04:03:54;;;;;;;6.45;2.15;;;13.00;99.90;;;;;;5046950;28;20080;-78
2023/09/19 04:06:19;;;;;;;7.70;2.10;;;13.00;99.90;;;;;;5030971;28;20048;-79
2023/09/19 04:08:47;;;;;;;6.72;2.38;;;13.00;99.90;;;;;;5015486;28;20045;-78
2023/09/19 04:11:12;;;;;;;6.15;2.00;;;13.10;99.90;;;;;;5050955;28;20083;-78
2023/09/19 04:13:38;;;;;;;7.60;2.55;;;13.00;99.90;;;;;;5051150;28;20080;-78
2023/09/19 04:16:04;;;;;;;6.18;2.20;;;13.10;99.90;;;;;;5050863;28;20163;-79
2023/09/19 04:18:33;;;;;;;10.57;2.95;;;13.10;99.90;;;;;;5051049;28;20124;-78
2023/09/19 04:20:59;;;;;;;8.55;2.17;;;13.10;99.90;;;;;;5050687;28;20048;-79
2023/09/19 04:23:25;;;;;;;5.93;2.25;;;13.10;99.90;;;;;;5051323;28;20389;-78
2023/09/19 04:25:51;;;;;;;4.65;2.75;;;13.20;99.90;;;;;;5050988;28;20060;-78
2023/09/19 04:28:17;;;;;;;5.63;2.47;;;13.20;99.90;;;;;;5052097;28;20044;-79
2023/09/19 04:30:43;;;;;;;8.95;2.13;;;13.20;99.90;;;;;;5051159;28;20033;-78
2023/09/19 04:33:08;;;;;;;5.47;2.10;;;13.30;99.90;;;;;;5051589;28;20106;-79
2023/09/19 04:35:35;;;;;;;8.90;2.53;;;13.60;99.90;;;;;;5016881;28;20822;-78
2023/09/19 04:38:01;;;;;;;9.82;2.70;;;13.50;99.90;;;;;;5032586;28;20053;-79
2023/09/19 04:40:26;;;;;;;9.65;2.25;;;13.60;99.90;;;;;;5051394;28;20056;-79
2023/09/19 04:42:58;;;;;;;7.63;2.30;;;13.50;99.90;;;;;;5050840;28;20048;-79
2023/09/19 04:45:27;;;;;;;10.63;2.67;;;13.50;99.90;;;;;;5050544;28;20139;-79
2023/09/19 04:47:54;;;;;;;7.75;2.45;;;13.60;99.90;;;;;;5050652;28;20163;-79
2023/09/19 04:50:21;;;;;;;9.23;2.42;;;13.60;99.90;;;;;;5051044;28;20045;-79
2023/09/19 04:52:50;;;;;;;8.20;2.38;;;13.60;99.90;;;;;;5050881;28;20049;-79
2023/09/19 04:55:18;;;;;;;7.97;2.42;;;13.60;99.90;;;;;;5031826;28;20353;-79
2023/09/19 04:57:52;;;;;;;6.75;2.45;;;13.70;99.90;;;;;;5050897;28;20041;-79
2023/09/19 05:00:23;;;;;;;10.05;2.55;;;13.70;99.90;;;;;;5050234;28;20041;-79
2023/09/19 05:02:51;;;;;;;7.88;2.30;;;13.70;99.90;;;;;;5032842;28;20055;-78
2023/09/19 05:05:17;;;;;;;10.30;2.38;;;13.70;99.90;;;;;;5050605;28;20876;-79
2023/09/19 05:07:43;;;;;;;8.18;2.78;;;13.70;99.90;;;;;;5050437;28;20148;-79
2023/09/19 05:10:10;;;;;;;9.02;3.17;;;13.70;99.90;;;;;;5030195;28;20053;-79
2023/09/19 05:12:36;;;;;;;9.48;2.88;;;13.70;99.90;;;;;;5048765;28;20049;-79
2023/09/19 05:15:07;;;;;;;7.97;2.40;;;13.70;99.90;;;;;;5014411;28;20550;-78
2023/09/19 05:17:33;;;;;;;8.50;2.50;;;13.70;99.90;;;;;;5029501;28;20124;-79
2023/09/19 05:20:00;;;;;;;6.78;2.35;;;13.80;99.90;;;;;;5030114;28;20396;-78
2023/09/19 05:22:28;;;;;;;11.02;2.75;;;13.70;99.90;;;;;;5049963;28;20044;-78
2023/09/19 05:24:54;;;;;;;6.88;2.50;;;13.70;99.90;;;;;;5032320;28;20053;-78
2023/09/19 05:27:20;;;;;;;10.43;2.70;;;13.70;99.90;;;;;;5013165;28;20409;-79
2023/09/19 05:29:53;;;;;;;12.93;2.65;;;13.70;99.90;;;;;;5035437;28;20546;-78
2023/09/19 05:32:19;;;;;;;8.82;2.75;;;13.70;99.90;;;;;;5044950;28;20056;-77
2023/09/19 05:34:47;;;;;;;8.15;3.03;;;13.60;99.90;;;;;;5047059;28;20052;-77
2023/09/19 05:37:13;;;;;;;7.22;2.63;;;13.60;99.90;;;;;;5049874;28;20090;-78
2023/09/19 05:39:39;;;;;;;12.43;4.05;;;13.60;99.90;;;;;;5050767;28;20048;-78
2023/09/19 05:42:04;;;;;;;8.98;2.70;;;13.60;99.90;;;;;;5051850;28;20049;-78
2023/09/19 05:44:31;;;;;;;13.23;3.47;;;13.60;99.90;;;;;;5050899;28;20132;-78
2023/09/19 05:46:56;;;;;;;7.43;3.03;;;13.50;99.90;;;;;;5033281;28;20060;-79
2023/09/19 05:49:24;;;;;;;8.20;2.30;;;13.50;99.90;;;;;;5031969;28;20474;-77
2023/09/19 05:51:54;;;;;;;10.43;2.70;;;13.50;99.90;;;;;;5015453;28;20053;-77
2023/09/19 05:54:20;;;;;;;7.68;2.70;;;13.50;99.90;;;;;;5031539;28;20145;-77
2023/09/19 05:56:47;;;;;;;11.07;2.80;;;13.70;99.90;;;;;;5048684;28;20134;-77
2023/09/19 05:59:15;;;;;;;11.68;2.90;;;13.40;99.90;;;;;;5049997;28;20052;-78
2023/09/19 06:01:46;;;;;;;6.40;2.50;;;13.40;99.90;;;;;;5050316;28;20392;-80
2023/09/19 06:04:13;;;;;;;10.13;2.78;;;13.40;99.90;;;;;;5050389;28;20041;-79
2023/09/19 06:06:39;;;;;;;7.63;2.33;;;13.40;99.90;;;;;;5050692;28;20175;-80
2023/09/19 06:09:08;;;;;;;7.30;2.55;;;13.40;99.90;;;;;;5047568;28;20078;-79
2023/09/19 06:11:37;;;;;;;7.10;2.28;;;13.40;99.90;;;;;;5048031;28;20044;-79
2023/09/19 06:14:03;;;;;;;7.47;2.13;;;13.50;99.90;;;;;;5048347;28;20041;-79
2023/09/19 06:16:32;;;;;;;9.95;2.42;;;13.50;99.90;;;;;;5048016;28;20061;-79
2023/09/19 06:18:59;;;;;;;12.82;2.40;;;13.60;99.90;;;;;;5045927;28;20097;-79
2023/09/19 06:21:26;;;;;;;8.95;2.60;;;13.60;99.90;;;;;;5048374;28;20124;-79
2023/09/19 06:23:53;;;;;;;9.23;2.47;;;13.70;99.90;;;;;;5048594;28;20037;-79
2023/09/19 06:26:19;;;;;;;7.53;2.20;;;13.80;99.90;;;;;;5048644;28;20045;-79
2023/09/19 06:28:44;;;;;;;13.05;3.17;;;14.00;99.90;;;;;;5048723;28;20095;-79
2023/09/19 06:31:10;;;;;;;7.10;2.22;;;14.00;99.90;;;;;;5047268;28;20564;-79
2023/09/19 06:33:40;;;;;;;8.93;2.42;;;14.00;99.90;;;;;;5045923;28;20511;-79
2023/09/19 06:36:06;;;;;;;8.32;2.60;;;14.40;99.90;;;;;;5046854;28;20112;-79
2023/09/19 06:38:36;;;;;;;7.43;2.20;;;14.00;99.90;;;;;;5043359;28;20045;-79
2023/09/19 06:41:06;;;;;;;10.02;2.95;;;14.00;99.90;;;;;;5029089;28;20499;-79
2023/09/19 06:43:33;;;;;;;7.82;2.20;;;14.10;99.90;;;;;;5047131;28;20052;-79
2023/09/19 06:46:00;;;;;;;8.70;2.13;;;13.90;99.90;;;;;;5046477;28;20147;-80
2023/09/19 06:48:26;;;;;;;6.20;2.20;;;13.80;99.90;;;;;;5046902;28;20899;-79
2023/09/19 06:50:55;;;;;;;9.82;3.10;;;13.80;99.90;;;;;;5029989;28;20543;-80
2023/09/19 06:53:22;;;;;;;10.05;2.30;;;13.80;99.90;;;;;;5047394;28;20118;-80
2023/09/19 06:55:48;;;;;;;7.82;2.85;;;13.80;99.90;;;;;;5047281;28;20503;-80
2023/09/19 06:58:13;;;;;;;8.07;2.03;;;13.70;99.90;;;;;;5013882;28;20041;-80
2023/09/19 07:00:39;;;;;;;8.10;2.28;;;13.70;99.90;;;;;;5048129;28;20045;-80
2023/09/19 07:03:13;;;;;;;12.07;2.60;;;13.80;99.90;;;;;;5014057;28;20049;-80
2023/09/19 07:05:39;;;;;;;8.40;2.50;;;13.90;99.90;;;;;;5013316;28;20041;-80
2023/09/19 07:08:07;;;;;;;12.07;2.45;;;14.00;99.90;;;;;;5048640;28;20045;-80
2023/09/19 07:10:34;;;;;;;11.07;2.20;;;14.30;99.90;;;;;;5047281;28;20109;-79
2023/09/19 07:13:04;;;;;;;10.30;2.58;;;14.30;99.90;;;;;;5047805;28;20125;-79
2023/09/19 07:15:33;;;;;;;9.45;2.47;;;14.50;99.90;;;;;;5029681;28;20060;-80
2023/09/19 07:18:00;;;;;;;9.77;2.20;;;14.60;99.90;;;;;;5047915;28;20048;-80
2023/09/19 07:20:26;;;;;;;7.50;2.72;;;14.80;99.90;;;;;;5029936;28;20055;-80
2023/09/19 07:22:54;;;;;;;10.05;2.53;;;15.00;99.90;;;;;;5047330;28;20064;-80
2023/09/19 07:25:20;;;;;;;10.20;2.25;;;15.20;99.90;;;;;;5029328;28;20063;-80
2023/09/19 07:27:46;;;;;;;8.80;2.33;;;15.20;99.90;;;;;;5047662;28;20045;-79
2023/09/19 07:30:12;;;;;;;7.90;2.10;;;15.20;99.90;;;;;;5047699;28;20520;-79
2023/09/19 07:32:38;;;;;;;8.65;2.22;;;15.20;99.90;;;;;;5047729;28;20047;-79
2023/09/19 07:35:07;;;;;;;7.93;2.28;;;15.20;99.90;;;;;;5047257;28;20442;-80
2023/09/19 07:37:34;;;;;;;8.88;2.40;;;15.10;99.90;;;;;;5029643;28;20589;-80
2023/09/19 07:40:11;;;;;;;9.63;2.10;;;15.00;99.90;;;;;;5046270;28;20041;-80
2023/09/19 07:42:40;;;;;;;7.68;2.50;;;14.90;99.90;;;;;;5047403;28;20488;-79
2023/09/19 07:45:07;;;;;;;7.53;2.42;;;14.90;99.90;;;;;;5029650;28;20123;-79
2023/09/19 07:47:33;;;;;;;7.72;2.20;;;14.80;99.90;;;;;;5028817;28;20041;-80
2023/09/19 07:50:01;;;;;;;6.43;2.45;;;14.80;99.90;;;;;;5029382;28;20052;-79
2023/09/19 07:52:27;;;;;;;7.30;2.25;;;14.80;99.90;;;;;;5028640;28;20381;-78
2023/09/19 07:54:53;;;;;;;10.32;2.40;;;14.80;99.90;;;;;;5037072;28;20041;-77
2023/09/19 07:57:19;;;;;;;9.52;2.42;;;15.10;99.90;;;;;;5046006;28;20574;-78
2023/09/19 07:59:46;;;;;;;9.82;2.33;;;15.10;99.90;;;;;;5045343;28;20040;-79
2023/09/19 08:02:15;;;;;;;8.52;2.22;;;15.40;99.90;;;;;;5027556;28;20044;-78
2023/09/19 08:04:48;;;;;;;9.23;2.42;;;15.20;99.90;;;;;;5046077;28;20470;-78
2023/09/19 08:07:15;;;;;;;7.45;2.58;;;15.40;99.90;;;;;;5052341;28;20440;-79
2023/09/19 08:09:41;;;;;;;7.22;2.28;;;15.50;99.90;;;;;;5032701;28;20055;-78
2023/09/19 08:12:10;;;;;;;8.00;3.28;;;15.90;99.90;;;;;;5066955;28;20037;-80
2023/09/19 08:14:37;;;;;;;11.82;2.55;;;15.50;99.90;;;;;;5049559;28;20097;-80
2023/09/19 08:17:05;;;;;;;8.95;2.72;;;15.40;99.90;;;;;;5063766;28;20061;-80
2023/09/19 08:19:31;;;;;;;11.40;2.30;;;15.40;99.90;;;;;;5029357;28;20056;-81
2023/09/19 08:22:03;;;;;;;9.57;2.30;;;15.40;99.90;;;;;;5054846;28;20048;-80
2023/09/19 08:24:30;;;;;;;9.70;2.70;;;15.60;99.90;;;;;;5046189;28;20066;-80
2023/09/19 08:26:57;;;;;;;7.22;2.47;;;15.30;99.90;;;;;;5046641;28;20891;-80
2023/09/19 08:29:27;;;;;;;11.73;2.45;;;15.30;99.90;;;;;;5029527;28;20376;-80
2023/09/19 08:31:54;;;;;;;8.88;2.88;;;15.40;99.90;;;;;;5045683;28;20084;-80
2023/09/19 08:34:21;;;;;;;10.45;3.47;;;15.50;99.90;;;;;;5046327;28;20049;-80
2023/09/19 08:36:56;;;;;;;9.80;2.55;;;15.60;99.90;;;;;;5028897;28;20575;-80
2023/09/19 08:39:26;;;;;;;9.35;2.58;;;15.70;99.90;;;;;;5046311;28;20041;-80
2023/09/19 08:42:01;;;;;;;9.75;2.50;;;15.80;99.90;;;;;;5028497;28;20052;-79
2023/09/19 08:44:30;;;;;;;8.65;2.70;;;15.90;99.90;;;;;;5028051;28;20143;-79
2023/09/19 08:47:07;;;;;;;12.65;3.08;;;16.10;99.90;;;;;;5027048;28;20045;-80
2023/09/19 08:50:02;;;;;;;8.60;2.38;;;16.10;99.90;;;;;;5046672;28;20041;-79
2023/09/19 08:52:40;;;;;;;15.40;3.13;;;16.20;99.90;;;;;;5049398;28;20088;-80
2023/09/19 08:55:08;;;;;;;8.65;2.47;;;16.30;99.90;;;;;;5015693;28;20053;-79
2023/09/19 08:57:39;;;;;;;13.52;2.85;;;16.30;99.90;;;;;;5049036;28;20488;-78
2023/09/19 09:00:09;;;;;;;9.90;2.63;;;16.40;99.90;;;;;;5049928;28;20819;-78
2023/09/19 09:02:40;;;;;;;9.18;2.72;;;16.50;99.90;;;;;;5033136;28;20103;-77
2023/09/19 09:05:10;;;;;;;6.70;2.78;;;16.60;99.90;;;;;;5032798;28;20071;-78
2023/09/19 09:07:37;;;;;;;8.50;2.70;;;16.60;99.90;;;;;;5030663;28;20036;-78
2023/09/19 09:10:04;;;;;;;12.52;2.63;;;16.30;99.90;;;;;;5030979;28;20045;-77
2023/09/19 09:12:30;;;;;;;9.63;2.70;;;16.70;99.90;;;;;;5031230;28;20103;-77
2023/09/19 09:14:57;;;;;;;9.50;2.97;;;16.80;99.90;;;;;;5050250;28;20132;-77
2023/09/19 09:17:24;;;;;;;8.93;2.72;;;18.00;99.90;;;;;;5031601;28;20132;-77
2023/09/19 09:19:52;;;;;;;10.90;2.53;;;17.70;99.90;;;;;;5047386;28;20055;-78
2023/09/19 09:22:21;;;;;;;7.72;2.47;;;17.00;99.90;;;;;;5032408;28;20091;-78
2023/09/19 09:24:58;;;;;;;10.80;2.42;;;17.30;99.90;;;;;;5031740;28;20049;-80
2023/09/19 09:27:24;;;;;;;9.05;2.30;;;17.50;99.90;;;;;;5050693;28;20087;-78
2023/09/19 09:29:51;;;;;;;12.15;2.63;;;17.60;99.90;;;;;;5015351;28;20092;-76
2023/09/19 09:32:18;;;;;;;9.05;2.30;;;17.30;99.90;;;;;;5049936;28;20042;-78
2023/09/19 09:34:44;;;;;;;9.05;2.90;;;17.60;99.90;;;;;;5030513;28;20094;-80
2023/09/19 09:37:15;;;;;;;11.88;2.50;;;17.70;99.90;;;;;;5031882;28;20048;-82
2023/09/19 09:39:51;;;;;;;11.25;2.67;;;17.70;99.90;;;;;;5031281;28;20063;-79
2023/09/19 09:42:38;;;;;;;7.35;2.72;;;17.70;99.90;;;;;;5030115;28;20052;-81
2023/09/19 09:48:03;;;;;;;11.65;2.78;;;17.80;99.90;;;;;;5031515;28;20169;-81
2023/09/19 09:50:55;;;;;;;14.25;2.72;;;17.90;99.90;;;;;;5016913;28;20053;-80
2023/09/19 09:53:26;;;;;;;8.93;2.13;;;17.90;99.90;;;;;;5049103;28;20574;-81
2023/09/19 09:56:07;;;;;;;11.53;2.70;;;18.00;99.90;;;;;;5046840;28;20057;-82
2023/09/19 09:58:37;;;;;;;6.90;2.33;;;18.10;99.90;;;;;;5050026;28;20076;-82
2023/09/19 10:01:15;;;;;;;9.85;2.95;;;18.20;99.90;;;;;;5031994;28;20047;-81
2023/09/19 10:03:47;;;;;;;10.02;2.42;;;18.50;99.90;;;;;;5049131;28;20532;-79
2023/09/19 10:06:40;;;;;;;12.20;2.85;;;18.20;99.90;;;;;;5030934;28;20075;-82
2023/09/19 10:09:10;;;;;;;8.05;2.75;;;18.30;99.90;;;;;;5028544;28;20126;-80
2023/09/19 10:11:44;;;;;;;8.02;2.25;;;18.20;99.90;;;;;;5044474;28;20131;-82
2023/09/19 10:14:12;;;;;;;8.95;2.78;;;18.30;99.90;;;;;;5016053;28;20774;-81
2023/09/19 10:16:44;;;;;;;11.52;2.65;;;18.90;99.90;;;;;;5018056;28;20081;-81
2023/09/19 10:19:15;;;;;;;10.48;2.60;;;18.40;99.90;;;;;;5048289;28;20045;-82
2023/09/19 10:21:43;;;;;;;5.75;2.53;;;18.70;99.90;;;;;;5047989;28;20041;-81
2023/09/19 10:24:09;;;;;;;8.98;2.78;;;18.50;99.90;;;;;;5049214;28;20041;-82
2023/09/19 10:26:37;;;;;;;9.13;2.55;;;18.40;99.90;;;;;;5048374;28;20044;-81
2023/09/19 10:29:07;;;;;;;9.18;2.80;;;18.40;99.90;;;;;;5031106;28;20392;-83
2023/09/19 10:31:35;;;;;;;11.13;2.75;;;18.40;99.90;;;;;;5026950;28;20044;-82
2023/09/19 10:34:04;;;;;;;10.95;2.70;;;18.50;99.90;;;;;;5048401;28;20055;-82
2023/09/19 10:36:36;;;;;;;9.43;3.28;;;18.60;99.90;;;;;;5031380;28;20080;-82
2023/09/19 10:39:06;;;;;;;12.32;3.10;;;18.60;99.90;;;;;;5026171;28;20444;-81
2023/09/19 10:41:34;;;;;;;10.93;2.53;;;18.60;99.90;;;;;;5030218;28;20849;-83
2023/09/19 10:44:06;;;;;;;9.15;2.83;;;18.50;99.90;;;;;;5048300;28;20052;-82
2023/09/19 10:46:32;;;;;;;8.85;3.15;;;18.40;99.90;;;;;;5027048;28;20872;-83
2023/09/19 10:49:02;;;;;;;8.77;2.63;;;18.40;99.90;;;;;;5048172;28;20515;-82
2023/09/19 10:51:38;;;;;;;9.55;2.47;;;18.60;99.90;;;;;;5030099;28;20445;-83
2023/09/19 10:54:15;;;;;;;7.28;2.70;;;18.60;99.90;;;;;;5048869;28;20044;-83
2023/09/19 10:56:50;;;;;;;10.63;2.90;;;18.70;99.90;;;;;;5046232;28;20555;-81
2023/09/19 10:59:18;;;;;;;12.13;2.85;;;18.70;99.90;;;;;;5040633;28;20033;-82
2023/09/19 11:01:56;;;;;;;9.75;2.90;;;18.70;99.90;;;;;;5018708;28;20407;-82
2023/09/19 11:04:31;;;;;;;10.55;2.78;;;19.40;99.90;;;;;;5030111;28;20128;-83
2023/09/19 11:07:10;;;;;;;7.70;2.45;;;18.70;99.90;;;;;;5018722;28;20164;-82
2023/09/19 11:09:58;;;;;;;7.05;2.60;;;18.70;99.90;;;;;;5041571;28;20041;-83
2023/09/19 11:12:52;;;;;;;10.60;2.63;;;18.70;99.90;;;;;;5046244;28;20079;-83
2023/09/19 11:15:54;;;;;;;9.45;2.58;;;18.70;99.90;;;;;;5041662;28;20045;-82
2023/09/19 11:18:41;;;;;;;8.55;2.60;;;18.80;99.90;;;;;;5047612;28;20053;-81
2023/09/19 11:21:29;;;;;;;9.27;2.33;;;18.80;99.90;;;;;;5029541;28;20049;-81
2023/09/19 11:24:10;;;;;;;8.07;2.47;;;18.80;99.90;;;;;;5013612;28;20076;-81
2023/09/19 11:26:47;;;;;;;7.57;2.22;;;19.00;99.90;;;;;;5043943;28;20401;-82
2023/09/19 11:29:26;;;;;;;6.60;2.45;;;19.40;99.90;;;;;;5022731;28;20041;-81
2023/09/19 11:31:55;;;;;;;6.65;1.70;;;19.30;99.90;;;;;;5043166;28;20037;-81
2023/09/19 11:34:36;;;;;;;10.63;2.17;;;18.90;99.90;;;;;;5021359;28;20120;-82
2023/09/19 11:37:06;;;;;;;9.13;2.20;;;18.90;99.90;;;;;;5045218;28;20048;-82
2023/09/19 11:39:32;;;;;;;10.90;2.88;;;19.30;99.90;;;;;;5028041;28;20091;-83
2023/09/19 11:41:58;;;;;;;16.73;3.25;;;18.80;99.90;;;;;;5027684;28;20158;-82
2023/09/19 11:44:30;;;;;;;8.88;2.45;;;19.30;99.90;;;;;;5044930;28;20590;-84
2023/09/19 11:46:59;;;;;;;9.70;2.88;;;19.00;99.90;;;;;;5028809;28;20110;-83
2023/09/19 11:49:34;;;;;;;7.55;2.30;;;19.10;99.90;;;;;;5029851;28;20080;-83
2023/09/19 11:52:01;;;;;;;10.40;2.70;;;18.90;99.90;;;;;;5029198;28;20088;-83
2023/09/19 11:54:51;;;;;;;8.32;2.20;;;18.90;99.90;;;;;;5021636;28;20112;-84
2023/09/19 11:57:21;;;;;;;6.25;2.00;;;18.80;99.90;;;;;;5024913;28;20045;-84
2023/09/19 11:59:48;;;;;;;10.90;2.83;;;19.40;99.90;;;;;;5047278;28;20033;-83
2023/09/19 12:02:29;;;;;;;6.32;2.30;;;18.80;99.90;;;;;;5029846;28;20037;-86
2023/09/19 12:04:55;;;;;;;6.35;2.80;;;19.40;99.90;;;;;;5024813;28;20047;-85
2023/09/19 12:07:21;;;;;;;7.30;2.70;;;18.60;99.90;;;;;;5028633;28;20045;-86
2023/09/19 12:10:04;;;;;;;5.78;1.83;;;19.20;99.90;;;;;;5027881;28;20056;-87
2023/09/19 12:12:30;;;;;;;10.68;2.20;;;18.70;99.90;;;;;;5029113;28;20052;-85
2023/09/19 12:14:59;;;;;;;10.55;2.40;;;19.00;99.90;;;;;;5047375;28;20052;-86
2023/09/19 12:17:47;;;;;;;6.70;2.03;;;19.50;99.90;;;;;;5046873;28;20522;-84
2023/09/19 12:20:14;;;;;;;7.32;2.30;;;18.80;99.90;;;;;;5046016;28;20041;-86
2023/09/19 12:22:47;;;;;;;7.57;2.03;;;18.70;99.90;;;;;;5012478;28;20128;-87
2023/09/19 12:25:13;;;;;;;7.28;2.00;;;18.80;99.90;;;;;;5029816;28;20045;-84
2023/09/19 12:27:55;;;;;;;6.20;2.20;;;18.40;99.90;;;;;;5023489;28;20041;-83
2023/09/19 12:30:33;;;;;;;5.28;2.30;;;18.50;99.90;;;;;;5046147;28;20514;-85
2023/09/19 12:32:59;;;;;;;7.38;2.05;;;18.30;99.90;;;;;;5040964;28;20412;-85
2023/09/19 12:35:35;;;;;;;8.88;2.53;;;18.20;99.90;;;;;;5015327;28;20052;-84
2023/09/19 12:38:01;;;;;;;8.85;1.98;;;18.10;99.90;;;;;;5027655;28;20057;-83
2023/09/19 12:40:29;;;;;;;9.15;2.58;;;18.20;99.90;;;;;;5048534;28;20036;-83
2023/09/19 12:42:55;;;;;;;5.57;1.73;;;17.90;99.90;;;;;;5030289;28;20495;-83
2023/09/19 12:45:21;;;;;;;6.15;2.00;;;18.20;99.90;;;;;;5024946;28;20053;-83
2023/09/19 12:48:29;;;;;;;7.22;2.03;;;18.70;99.90;;;;;;5031693;28;20516;-86
2023/09/19 12:51:05;;;;;;;3.85;1.60;;;18.30;99.90;;;;;;4996507;28;20543;-83
2023/09/19 12:53:36;;;;;;;7.38;2.28;;;18.30;99.90;;;;;;5030794;28;20052;-84
2023/09/19 12:56:02;;;;;;;5.85;2.08;;;18.30;99.90;;;;;;5029044;28;20136;-84
2023/09/19 12:58:31;;;;;;;5.55;1.98;;;18.20;99.90;;;;;;5031974;28;20809;-84
2023/09/19 13:00:59;;;;;;;10.70;2.40;;;18.60;99.90;;;;;;5032446;28;20056;-85
2023/09/19 13:03:28;;;;;;;6.22;2.15;;;18.60;99.90;;;;;;5032062;28;20110;-84